Terminal Aerodrome Forecast
Issued by NWS Atlanta, GA

Home | Current Version | Previous Version | Text Only | Print | Product List | Glossary On
Versions: 1 2 3 4 5 6 7 8 9 10 11 12 13 14 15 16 17 18 19 20 21
665
FTUS42 KFFC 281120
TAFCSG
TAF
KCSG 281120Z 2812/2912 25005KT P6SM FEW080
     FM281500 26010G15KT P6SM FEW040
     FM281800 24012G20KT P6SM VCSH SCT050
     FM282300 27008KT P6SM BKN250=

USA.gov is the U.S. government's official web portal to all federal, state and local government web resources and services.